Time;durP1;ratioP1;P1;durP2;ratioP2;P2;SDS_P1;SDS_P2;PMS_P1;PMS_P2;Temp;Humidity;BMP_temperature;BMP_pressure;BME280_temperature;BME280_humidity;BME280_pressure;Samples;Min_cycle;Max_cycle;Signal;HPM_P1;HPM_P2
2022/04/07 00:02:17;;;;;;;25.83;24.83;;;21.90;48.10;;;;;;5050989;28;20448;-50
2022/04/07 00:04:43;;;;;;;25.60;24.60;;;21.90;48.20;;;;;;5051071;28;20449;-47
2022/04/07 00:07:10;;;;;;;25.80;24.80;;;21.90;48.20;;;;;;5050486;28;20530;-52
2022/04/07 00:09:38;;;;;;;25.50;24.50;;;21.90;48.30;;;;;;5050936;28;20488;-49
2022/04/07 00:12:05;;;;;;;26.17;25.17;;;21.90;48.30;;;;;;5051009;28;20449;-48
2022/04/07 00:14:32;;;;;;;26.97;25.97;;;21.80;48.30;;;;;;5052834;28;20452;-47
2022/04/07 00:16:59;;;;;;;27.20;26.20;;;21.80;48.30;;;;;;5054375;28;20461;-47
2022/04/07 00:19:26;;;;;;;25.73;24.83;;;21.80;48.50;;;;;;5054748;28;20998;-47
2022/04/07 00:21:54;;;;;;;26.00;25.00;;;21.70;48.50;;;;;;5054521;28;20932;-48
2022/04/07 00:24:22;;;;;;;25.37;24.47;;;21.70;48.50;;;;;;5054159;28;20456;-48
2022/04/07 00:26:51;;;;;;;25.47;24.57;;;21.70;48.80;;;;;;5054128;28;20476;-48
2022/04/07 00:29:18;;;;;;;25.43;24.53;;;21.70;48.80;;;;;;5054473;28;20487;-48
2022/04/07 00:31:45;;;;;;;27.30;26.30;;;21.80;48.80;;;;;;5054398;28;20439;-50
2022/04/07 00:34:12;;;;;;;25.87;24.90;;;21.90;48.70;;;;;;5054194;28;20460;-47
2022/04/07 00:36:39;;;;;;;24.70;23.80;;;21.90;48.70;;;;;;5054187;28;20471;-48
2022/04/07 00:39:05;;;;;;;25.57;24.67;;;21.80;48.60;;;;;;5054303;28;20486;-48
2022/04/07 00:41:32;;;;;;;26.03;25.13;;;21.80;48.60;;;;;;5054236;28;20455;-47
2022/04/07 00:44:00;;;;;;;25.37;24.47;;;21.80;48.60;;;;;;5053966;28;20453;-52
2022/04/07 00:46:27;;;;;;;25.33;24.43;;;21.70;48.60;;;;;;5053860;28;20464;-52
2022/04/07 00:48:54;;;;;;;30.10;29.10;;;21.70;48.60;;;;;;5054135;28;20445;-47
2022/04/07 00:51:21;;;;;;;28.63;27.63;;;21.70;48.60;;;;;;5054058;28;21031;-47
2022/04/07 00:53:48;;;;;;;28.70;27.70;;;21.60;48.60;;;;;;5053901;28;20452;-48
2022/04/07 00:56:15;;;;;;;28.23;27.23;;;21.60;48.70;;;;;;5053649;28;20472;-47
2022/04/07 00:58:42;;;;;;;28.50;27.40;;;21.60;48.80;;;;;;5053823;28;20444;-49
2022/04/07 01:01:10;;;;;;;28.50;27.40;;;21.60;48.90;;;;;;5053848;28;20808;-48
2022/04/07 01:03:37;;;;;;;29.70;28.50;;;21.60;49.00;;;;;;5053634;28;20447;-48
2022/04/07 01:06:03;;;;;;;29.20;28.20;;;21.60;49.00;;;;;;5053446;28;20464;-52
2022/04/07 01:08:30;;;;;;;28.50;27.50;;;21.70;49.00;;;;;;5053852;28;20458;-48
2022/04/07 01:10:57;;;;;;;27.70;26.70;;;21.70;48.90;;;;;;5053755;28;20889;-47
2022/04/07 01:13:24;;;;;;;28.60;27.53;;;21.70;49.30;;;;;;5053257;28;20444;-51
2022/04/07 01:15:50;;;;;;;28.70;27.60;;;21.70;48.80;;;;;;5053264;28;20468;-47
2022/04/07 01:18:19;;;;;;;28.57;27.57;;;21.70;48.80;;;;;;5053522;28;20449;-48
2022/04/07 01:20:45;;;;;;;27.93;26.87;;;21.70;48.70;;;;;;5053396;28;20448;-47
2022/04/07 01:23:13;;;;;;;26.90;26.00;;;21.70;48.70;;;;;;5053218;28;20955;-50
2022/04/07 01:25:42;;;;;;;27.47;26.47;;;21.60;48.70;;;;;;5053004;28;20464;-48
2022/04/07 01:28:08;;;;;;;28.43;27.23;;;21.60;48.70;;;;;;5053271;28;20456;-49
2022/04/07 01:30:35;;;;;;;28.20;27.20;;;21.60;48.70;;;;;;5053151;28;20479;-47
2022/04/07 01:33:02;;;;;;;26.73;25.73;;;21.60;48.70;;;;;;5052782;28;20445;-52
2022/04/07 01:35:30;;;;;;;27.37;26.37;;;21.50;48.60;;;;;;5052999;28;20514;-48
2022/04/07 01:37:59;;;;;;;28.40;27.40;;;21.50;48.80;;;;;;5053272;28;20447;-47
2022/04/07 01:40:29;;;;;;;30.53;29.43;;;21.50;48.90;;;;;;5053136;28;20441;-52
2022/04/07 01:42:58;;;;;;;26.87;25.87;;;21.50;49.00;;;;;;5052915;28;20444;-48
2022/04/07 01:45:26;;;;;;;26.60;25.60;;;21.60;49.10;;;;;;5052677;28;21006;-48
2022/04/07 01:47:55;;;;;;;26.43;25.47;;;21.60;49.10;;;;;;5053158;28;20452;-48
2022/04/07 01:50:25;;;;;;;26.53;25.53;;;21.70;49.00;;;;;;5052874;28;20499;-47
2022/04/07 01:52:52;;;;;;;25.97;25.07;;;21.70;48.80;;;;;;5052701;28;20449;-47
2022/04/07 01:55:19;;;;;;;25.43;24.53;;;21.70;48.70;;;;;;5052575;28;20836;-49
2022/04/07 01:57:47;;;;;;;25.13;24.23;;;21.70;48.70;;;;;;5053051;28;20965;-51
2022/04/07 02:00:15;;;;;;;26.07;25.07;;;21.70;48.70;;;;;;5052793;28;20440;-53
2022/04/07 02:02:42;;;;;;;26.27;25.33;;;21.70;48.80;;;;;;5052475;28;20448;-51
2022/04/07 02:05:11;;;;;;;26.70;25.70;;;21.70;48.90;;;;;;5052590;28;20451;-53
2022/04/07 02:07:39;;;;;;;27.20;26.20;;;21.70;49.00;;;;;;5052462;28;20452;-47
2022/04/07 02:10:07;;;;;;;26.87;25.90;;;21.60;49.00;;;;;;5052398;28;20480;-48
2022/04/07 02:12:37;;;;;;;25.57;24.67;;;21.60;48.90;;;;;;5052320;28;20539;-47
2022/04/07 02:15:04;;;;;;;26.13;25.13;;;21.60;49.00;;;;;;5052474;28;20456;-48
2022/04/07 02:17:33;;;;;;;27.13;26.13;;;21.60;49.10;;;;;;5052203;28;20479;-47
2022/04/07 02:20:01;;;;;;;25.73;24.83;;;21.60;49.10;;;;;;5052387;28;20445;-49
2022/04/07 02:22:28;;;;;;;27.43;26.43;;;21.60;49.20;;;;;;5052080;28;20455;-48
2022/04/07 02:24:56;;;;;;;27.67;26.67;;;21.60;49.20;;;;;;5052362;28;20510;-47
2022/04/07 02:27:23;;;;;;;25.80;24.90;;;21.70;49.10;;;;;;5051911;28;20460;-49
2022/04/07 02:29:50;;;;;;;27.83;26.83;;;21.70;48.90;;;;;;5052087;28;20480;-48
2022/04/07 02:32:17;;;;;;;25.60;24.70;;;21.70;48.90;;;;;;5052020;28;20885;-48
2022/04/07 02:34:45;;;;;;;26.10;25.20;;;21.70;48.70;;;;;;5052015;28;20448;-48
2022/04/07 02:37:12;;;;;;;25.60;24.60;;;21.70;48.70;;;;;;5051209;28;20471;-52
2022/04/07 02:39:38;;;;;;;24.80;23.90;;;21.70;48.80;;;;;;5051833;28;20445;-48
2022/04/07 02:42:06;;;;;;;26.63;25.73;;;21.70;48.80;;;;;;5051986;28;20440;-48
2022/04/07 02:44:32;;;;;;;26.13;25.13;;;21.70;48.80;;;;;;5051872;28;20444;-50
2022/04/07 02:46:59;;;;;;;27.40;26.40;;;21.70;48.80;;;;;;5051671;28;20464;-47
2022/04/07 02:49:26;;;;;;;27.07;26.07;;;21.70;48.80;;;;;;5051422;28;20451;-47
2022/04/07 02:51:54;;;;;;;26.80;25.80;;;21.60;48.80;;;;;;5051704;28;20951;-47
2022/04/07 02:54:21;;;;;;;26.10;25.20;;;21.60;48.80;;;;;;5051790;28;20449;-48
2022/04/07 02:56:47;;;;;;;25.50;24.57;;;21.60;48.80;;;;;;5051365;28;20483;-47
2022/04/07 02:59:14;;;;;;;27.13;26.13;;;21.70;49.00;;;;;;5051640;28;21033;-51
2022/04/07 03:01:41;;;;;;;25.23;24.23;;;21.80;49.00;;;;;;5051291;28;20441;-48
2022/04/07 03:04:08;;;;;;;26.90;25.90;;;21.80;48.80;;;;;;5051477;28;20532;-48
2022/04/07 03:06:35;;;;;;;27.07;26.07;;;21.80;48.70;;;;;;5051470;28;20475;-52
2022/04/07 03:09:03;;;;;;;26.60;25.70;;;21.80;48.60;;;;;;5051617;28;20819;-48
2022/04/07 03:11:29;;;;;;;26.20;25.30;;;21.80;48.50;;;;;;5051224;28;20852;-48
2022/04/07 03:13:56;;;;;;;26.70;25.70;;;21.90;48.60;;;;;;5051491;28;20448;-47
2022/04/07 03:16:23;;;;;;;27.30;26.30;;;21.80;48.50;;;;;;5051258;28;20456;-50
2022/04/07 03:18:49;;;;;;;25.43;24.53;;;21.70;48.60;;;;;;5051530;28;20451;-47
2022/04/07 03:21:16;;;;;;;25.57;24.67;;;21.70;48.60;;;;;;5051230;28;20940;-47
2022/04/07 03:23:43;;;;;;;24.63;23.83;;;21.70;48.60;;;;;;5051338;28;20448;-52
2022/04/07 03:26:11;;;;;;;25.97;25.07;;;21.70;48.60;;;;;;5051077;28;20582;-47
2022/04/07 03:28:38;;;;;;;26.57;25.57;;;21.70;48.60;;;;;;5051336;28;20506;-47
2022/04/07 03:31:04;;;;;;;25.60;24.60;;;21.70;48.60;;;;;;5051070;28;20480;-47
2022/04/07 03:33:31;;;;;;;26.03;25.13;;;21.70;48.70;;;;;;5051301;28;20452;-51
2022/04/07 03:35:58;;;;;;;26.20;25.30;;;21.70;48.70;;;;;;5051211;28;20472;-47
2022/04/07 03:38:25;;;;;;;26.50;25.50;;;21.70;48.70;;;;;;5051322;28;20866;-47
2022/04/07 03:40:52;;;;;;;25.97;25.07;;;21.80;48.60;;;;;;5050859;28;20451;-50
2022/04/07 03:43:20;;;;;;;26.93;25.93;;;21.80;48.50;;;;;;5051078;28;20444;-48
2022/04/07 03:45:46;;;;;;;26.70;25.80;;;21.80;48.50;;;;;;5050909;28;20464;-47
2022/04/07 03:48:13;;;;;;;25.40;24.50;;;21.80;48.40;;;;;;5051325;28;20444;-49
2022/04/07 03:50:40;;;;;;;26.20;25.30;;;21.80;48.40;;;;;;5054892;28;20471;-48
2022/04/07 03:53:07;;;;;;;27.10;26.20;;;21.80;48.30;;;;;;5055226;28;20812;-47
2022/04/07 03:55:34;;;;;;;26.63;25.73;;;21.80;48.30;;;;;;5054688;28;20475;-49
2022/04/07 03:58:01;;;;;;;26.33;25.43;;;21.80;48.40;;;;;;5055023;28;20464;-47
2022/04/07 04:00:30;;;;;;;28.37;27.37;;;21.80;48.50;;;;;;5054702;28;20440;-47
2022/04/07 04:02:57;;;;;;;29.63;28.63;;;21.90;48.60;;;;;;5055068;28;20821;-47
2022/04/07 04:05:24;;;;;;;28.27;27.27;;;22.20;48.50;;;;;;5054970;28;20448;-51
2022/04/07 04:07:50;;;;;;;28.37;27.37;;;22.30;48.10;;;;;;5055015;28;20820;-51
2022/04/07 04:10:18;;;;;;;29.37;28.37;;;22.40;47.80;;;;;;5054483;28;20486;-54
2022/04/07 04:12:45;;;;;;;28.80;27.70;;;22.50;47.60;;;;;;5054788;28;20521;-48
2022/04/07 04:15:11;;;;;;;27.03;26.03;;;22.50;47.40;;;;;;5054670;28;20451;-50
2022/04/07 04:17:39;;;;;;;28.60;27.60;;;22.50;47.30;;;;;;5054546;28;20444;-53
2022/04/07 04:20:07;;;;;;;29.43;28.43;;;22.50;47.30;;;;;;5054398;28;20444;-54
2022/04/07 04:22:34;;;;;;;29.60;28.50;;;22.60;47.30;;;;;;5054548;28;20456;-50
2022/04/07 04:25:01;;;;;;;31.70;30.53;;;22.70;47.30;;;;;;5054522;28;20932;-49
2022/04/07 04:27:28;;;;;;;31.77;30.57;;;22.90;47.30;;;;;;5054178;28;20464;-48
2022/04/07 04:29:54;;;;;;;34.70;33.50;;;22.90;47.20;;;;;;5054153;28;20679;-49
2022/04/07 04:32:21;;;;;;;34.87;33.57;;;22.90;47.00;;;;;;5054329;28;20932;-49
2022/04/07 04:34:49;;;;;;;35.33;34.07;;;23.00;46.90;;;;;;5054362;28;20448;-49
2022/04/07 04:37:16;;;;;;;32.10;31.00;;;23.00;46.80;;;;;;5054287;28;20460;-48
2022/04/07 04:39:43;;;;;;;32.40;31.20;;;23.00;46.80;;;;;;5054035;28;20440;-53
2022/04/07 04:42:10;;;;;;;32.50;31.30;;;23.00;46.70;;;;;;5034288;28;20449;-49
2022/04/07 04:44:37;;;;;;;33.40;32.20;;;22.90;46.70;;;;;;5051262;28;20448;-49
2022/04/07 04:47:04;;;;;;;32.20;30.90;;;22.90;46.90;;;;;;5053796;28;20468;-49
2022/04/07 04:49:31;;;;;;;32.37;30.90;;;23.00;47.30;;;;;;5054164;28;20444;-48
2022/04/07 04:51:59;;;;;;;33.30;32.00;;;23.00;47.70;;;;;;5053680;28;20476;-49
2022/04/07 04:54:26;;;;;;;31.27;29.97;;;23.00;48.20;;;;;;5053979;28;20454;-49
2022/04/07 04:56:52;;;;;;;32.47;30.73;;;23.00;48.80;;;;;;5053577;28;20472;-49
2022/04/07 04:59:19;;;;;;;32.07;30.87;;;23.00;49.50;;;;;;5053202;28;20449;-51
2022/04/07 05:01:46;;;;;;;34.50;33.20;;;23.00;49.40;;;;;;5053558;28;20437;-48
2022/04/07 05:04:12;;;;;;;35.47;33.50;;;22.80;48.40;;;;;;5053473;28;20445;-47
2022/04/07 05:06:39;;;;;;;33.00;31.70;;;22.40;48.30;;;;;;5053316;28;20789;-47
2022/04/07 05:09:07;;;;;;;35.03;33.50;;;22.30;48.60;;;;;;5053635;28;20467;-47
2022/04/07 05:11:34;;;;;;;36.53;35.03;;;22.40;48.60;;;;;;5053562;28;20487;-47
2022/04/07 05:14:01;;;;;;;35.93;34.63;;;22.50;48.50;;;;;;5053319;28;20448;-47
2022/04/07 05:16:28;;;;;;;37.43;36.03;;;22.50;48.20;;;;;;5053495;28;20460;-52
2022/04/07 05:18:54;;;;;;;38.27;36.87;;;22.60;48.00;;;;;;5053634;28;20444;-47
2022/04/07 05:21:21;;;;;;;34.90;33.47;;;22.60;47.80;;;;;;5053591;28;20447;-47
2022/04/07 05:23:48;;;;;;;35.13;33.73;;;22.70;47.70;;;;;;5053372;28;20451;-50
2022/04/07 05:26:16;;;;;;;37.50;36.10;;;22.60;47.40;;;;;;5053190;28;20468;-47
2022/04/07 05:28:43;;;;;;;35.47;33.97;;;22.70;47.40;;;;;;5053395;28;20461;-47
2022/04/07 05:31:10;;;;;;;35.97;34.67;;;22.60;47.20;;;;;;5053206;28;20491;-50
2022/04/07 05:33:37;;;;;;;36.43;34.90;;;22.70;47.20;;;;;;5053389;28;20445;-47
2022/04/07 05:36:04;;;;;;;35.47;34.17;;;22.60;47.10;;;;;;5052945;28;20468;-47
2022/04/07 05:38:31;;;;;;;34.50;33.10;;;22.60;47.00;;;;;;5052976;28;20456;-47
2022/04/07 05:40:58;;;;;;;34.33;32.67;;;22.60;47.00;;;;;;5053116;28;20798;-47
2022/04/07 05:43:26;;;;;;;36.17;34.77;;;22.50;46.90;;;;;;5052976;28;20448;-48
2022/04/07 05:45:53;;;;;;;35.40;34.00;;;22.50;46.80;;;;;;5052755;28;20472;-50
2022/04/07 05:48:20;;;;;;;35.73;34.33;;;22.50;46.80;;;;;;5053037;28;20808;-48
2022/04/07 05:50:47;;;;;;;36.03;34.63;;;22.40;46.70;;;;;;5052817;28;20511;-47
2022/04/07 05:53:14;;;;;;;34.50;33.13;;;22.30;46.80;;;;;;5052775;28;20451;-47
2022/04/07 05:58:09;;;;;;;36.20;34.80;;;22.20;46.90;;;;;;5102629;22;20493;-49
2022/04/07 06:00:38;;;;;;;34.30;33.00;;;22.20;47.00;;;;;;5072797;28;20443;-51
2022/04/07 06:03:05;;;;;;;34.47;33.07;;;22.20;47.00;;;;;;5072670;28;20810;-50
2022/04/07 06:05:32;;;;;;;33.00;31.70;;;22.20;46.90;;;;;;5072560;28;20450;-53
2022/04/07 06:07:59;;;;;;;33.67;32.47;;;22.10;46.90;;;;;;5072555;28;20472;-54
2022/04/07 06:10:26;;;;;;;34.93;33.63;;;22.00;46.80;;;;;;5072243;28;20444;-51
2022/04/07 06:12:53;;;;;;;33.90;32.70;;;22.10;47.00;;;;;;5071758;28;20440;-51
2022/04/07 06:15:20;;;;;;;35.73;34.43;;;22.00;46.90;;;;;;5072445;28;20808;-50
2022/04/07 06:17:49;;;;;;;36.33;35.03;;;22.00;46.90;;;;;;5072136;28;20466;-52
2022/04/07 06:20:17;;;;;;;37.37;36.07;;;21.90;46.90;;;;;;5072315;28;20443;-48
2022/04/07 06:22:45;;;;;;;32.03;30.83;;;22.00;47.00;;;;;;5072350;28;20443;-48
2022/04/07 06:25:13;;;;;;;36.60;35.27;;;21.90;47.00;;;;;;5072120;28;20447;-53
2022/04/07 06:27:41;;;;;;;34.07;32.77;;;21.90;46.90;;;;;;5071980;28;20459;-48
2022/04/07 06:30:10;;;;;;;34.80;33.50;;;21.80;46.90;;;;;;5072241;28;20457;-48
2022/04/07 06:32:37;;;;;;;32.27;31.07;;;21.80;47.00;;;;;;5072060;28;20480;-52
2022/04/07 06:35:06;;;;;;;31.20;30.10;;;21.70;47.00;;;;;;5072076;28;20454;-51
2022/04/07 06:37:44;;;;;;;31.53;30.33;;;21.70;47.10;;;;;;5071755;28;20546;-48
2022/04/07 06:40:12;;;;;;;34.80;33.60;;;21.60;47.10;;;;;;5072012;28;20443;-51
2022/04/07 06:42:38;;;;;;;34.40;33.10;;;21.60;47.20;;;;;;5071893;28;20498;-49
2022/04/07 06:45:06;;;;;;;32.50;31.30;;;21.60;47.20;;;;;;5071901;28;20446;-50
2022/04/07 06:47:37;;;;;;;32.47;31.20;;;21.60;47.20;;;;;;5071626;28;20834;-52
2022/04/07 06:50:07;;;;;;;34.93;33.73;;;21.60;47.10;;;;;;5071806;28;20443;-54
2022/04/07 06:52:33;;;;;;;34.77;33.47;;;21.60;47.20;;;;;;5071803;28;20478;-49
2022/04/07 06:55:00;;;;;;;33.40;32.20;;;21.60;47.10;;;;;;5071819;28;20530;-50
2022/04/07 06:57:27;;;;;;;35.60;34.40;;;21.50;47.10;;;;;;5071259;28;20475;-51
2022/04/07 06:59:54;;;;;;;34.00;32.80;;;21.50;47.10;;;;;;5071720;28;20448;-48
2022/04/07 07:02:20;;;;;;;34.77;33.47;;;21.40;47.20;;;;;;5071649;28;20444;-54
2022/04/07 07:04:47;;;;;;;33.40;32.10;;;21.30;47.20;;;;;;5071625;28;20443;-51
2022/04/07 07:07:16;;;;;;;31.50;30.30;;;21.20;47.40;;;;;;5071352;28;20460;-54
2022/04/07 07:09:43;;;;;;;32.53;31.33;;;21.10;48.20;;;;;;5071545;28;20890;-51
2022/04/07 07:12:10;;;;;;;33.30;32.00;;;21.10;47.80;;;;;;5071411;28;20479;-48
2022/04/07 07:14:36;;;;;;;34.20;33.00;;;21.00;47.80;;;;;;5071605;28;20447;-50
2022/04/07 07:17:03;;;;;;;32.63;31.43;;;20.90;47.90;;;;;;5071227;28;20463;-51
2022/04/07 07:19:30;;;;;;;32.90;31.50;;;20.90;48.00;;;;;;5071395;28;20444;-48
2022/04/07 07:21:57;;;;;;;32.03;30.83;;;20.80;48.10;;;;;;5071449;28;20454;-51
2022/04/07 07:24:25;;;;;;;30.00;28.90;;;20.70;48.20;;;;;;5071252;28;20447;-54
2022/04/07 07:26:52;;;;;;;32.30;31.10;;;20.70;48.30;;;;;;5071182;28;20467;-53
2022/04/07 07:29:19;;;;;;;31.97;30.77;;;20.70;48.40;;;;;;5071483;28;20996;-48
2022/04/07 07:31:46;;;;;;;32.20;31.00;;;20.70;48.40;;;;;;5071281;28;20483;-53
2022/04/07 07:34:12;;;;;;;30.70;29.60;;;20.60;48.40;;;;;;5071458;28;20515;-51
2022/04/07 07:36:39;;;;;;;32.00;30.80;;;20.60;48.50;;;;;;5071104;28;20463;-48
2022/04/07 07:39:07;;;;;;;31.50;30.40;;;20.50;48.60;;;;;;5071185;28;20451;-52
2022/04/07 07:41:37;;;;;;;31.63;30.37;;;20.50;48.70;;;;;;5071292;28;20530;-55
2022/04/07 07:44:04;;;;;;;30.10;29.00;;;20.40;48.70;;;;;;5071272;28;20482;-53
2022/04/07 07:46:32;;;;;;;32.60;31.50;;;20.40;48.80;;;;;;5070894;28;20470;-53
2022/04/07 07:48:59;;;;;;;32.17;30.97;;;20.40;48.80;;;;;;5071294;28;20823;-50
2022/04/07 07:51:25;;;;;;;29.20;28.10;;;20.40;48.90;;;;;;5071065;28;20479;-54
2022/04/07 07:53:52;;;;;;;33.43;32.23;;;20.40;48.90;;;;;;5071163;28;20474;-51
2022/04/07 07:56:19;;;;;;;33.17;31.97;;;20.40;49.00;;;;;;5070811;28;20475;-51
2022/04/07 07:58:47;;;;;;;36.60;35.30;;;20.30;48.90;;;;;;5071223;28;20439;-53
2022/04/07 08:01:14;;;;;;;34.53;33.30;;;20.30;48.90;;;;;;5071127;28;20809;-48
2022/04/07 08:03:40;;;;;;;35.43;34.13;;;20.30;49.00;;;;;;5071087;28;20443;-50
2022/04/07 08:06:07;;;;;;;36.57;35.27;;;20.30;49.00;;;;;;5070718;28;20471;-48
2022/04/07 08:08:34;;;;;;;35.97;34.67;;;20.20;49.10;;;;;;5071014;28;20596;-54
2022/04/07 08:11:01;;;;;;;36.40;35.00;;;20.20;49.10;;;;;;5070819;28;20443;-51
2022/04/07 08:13:27;;;;;;;36.70;35.40;;;20.10;49.80;;;;;;5070997;28;20451;-53
2022/04/07 08:15:55;;;;;;;36.93;35.53;;;20.10;49.30;;;;;;5070669;28;20451;-51
2022/04/07 08:18:23;;;;;;;37.83;36.50;;;20.10;49.50;;;;;;5070890;28;20450;-52
2022/04/07 08:20:50;;;;;;;35.77;34.47;;;20.00;49.60;;;;;;5070736;28;20491;-51
2022/04/07 08:23:17;;;;;;;34.27;32.97;;;20.00;49.60;;;;;;5070858;28;20451;-50
2022/04/07 08:25:43;;;;;;;36.50;35.20;;;20.00;49.70;;;;;;5070610;28;20447;-51
2022/04/07 08:28:11;;;;;;;35.40;34.10;;;20.00;49.70;;;;;;5070816;28;20447;-52
2022/04/07 08:30:37;;;;;;;34.67;33.37;;;20.00;49.70;;;;;;5070886;28;20455;-54
2022/04/07 08:33:06;;;;;;;33.60;32.30;;;20.00;49.70;;;;;;5070807;28;20479;-54
2022/04/07 08:35:32;;;;;;;34.70;33.40;;;20.00;49.70;;;;;;5072657;28;20443;-52
2022/04/07 08:37:59;;;;;;;35.03;33.67;;;20.00;49.70;;;;;;5074115;28;21008;-54
2022/04/07 08:40:28;;;;;;;34.83;33.53;;;20.00;49.70;;;;;;5074185;28;20478;-54
2022/04/07 08:42:54;;;;;;;35.23;33.93;;;19.90;49.80;;;;;;5074341;28;20806;-49
2022/04/07 08:45:21;;;;;;;36.63;35.33;;;19.90;50.00;;;;;;5074129;28;20446;-50
2022/04/07 08:47:49;;;;;;;35.70;34.30;;;19.80;50.10;;;;;;5074136;28;21033;-49
2022/04/07 08:50:21;;;;;;;34.57;33.27;;;19.90;50.10;;;;;;5074093;28;20448;-49
2022/04/07 08:52:48;;;;;;;35.40;34.10;;;19.90;50.10;;;;;;5074134;28;20479;-51
2022/04/07 08:55:15;;;;;;;35.60;34.30;;;19.90;50.30;;;;;;5073870;28;20454;-53
2022/04/07 08:57:43;;;;;;;34.73;33.43;;;19.90;50.30;;;;;;5073743;28;20483;-48
2022/04/07 09:00:11;;;;;;;35.07;33.77;;;19.90;50.10;;;;;;5074179;28;20922;-48
2022/04/07 09:02:38;;;;;;;33.77;32.47;;;20.00;50.10;;;;;;5073916;28;20526;-51
2022/04/07 09:05:11;;;;;;;33.13;31.93;;;20.00;50.50;;;;;;5073877;28;20856;-48
2022/04/07 09:07:39;;;;;;;31.80;30.60;;;20.00;49.90;;;;;;5073533;28;20467;-53
2022/04/07 09:10:07;;;;;;;31.87;30.67;;;20.00;49.90;;;;;;5073692;28;20934;-49
2022/04/07 09:12:38;;;;;;;30.47;29.17;;;20.10;49.80;;;;;;5073645;28;20852;-51
2022/04/07 09:15:06;;;;;;;28.90;27.80;;;20.00;49.70;;;;;;5073719;28;20498;-48
2022/04/07 09:17:34;;;;;;;29.60;28.50;;;20.00;50.00;;;;;;5073356;28;20467;-52
2022/04/07 09:20:01;;;;;;;27.77;26.67;;;20.10;49.90;;;;;;5073680;28;20455;-53
2022/04/07 09:22:33;;;;;;;29.70;28.30;;;20.20;49.90;;;;;;5073529;28;20984;-50
2022/04/07 09:25:05;;;;;;;28.30;27.20;;;20.20;49.60;;;;;;5073504;28;20501;-49
2022/04/07 09:27:32;;;;;;;28.47;27.37;;;20.20;49.80;;;;;;5073104;28;20473;-51
2022/04/07 09:30:00;;;;;;;29.27;28.07;;;20.30;49.80;;;;;;5073546;28;20447;-50
2022/04/07 09:32:28;;;;;;;30.63;29.30;;;20.30;49.60;;;;;;5073320;28;21006;-51
2022/04/07 09:34:56;;;;;;;31.20;30.00;;;20.20;49.50;;;;;;5073281;28;20455;-50
2022/04/07 09:37:25;;;;;;;30.00;28.90;;;20.10;49.80;;;;;;5072901;28;20554;-50
2022/04/07 09:40:05;;;;;;;27.97;26.97;;;20.00;50.10;;;;;;5073342;28;20439;-50
2022/04/07 09:42:33;;;;;;;29.63;28.53;;;19.90;50.40;;;;;;5073189;28;20439;-50
2022/04/07 09:45:01;;;;;;;29.30;28.10;;;19.80;50.50;;;;;;5073192;28;20943;-52
2022/04/07 09:47:35;;;;;;;30.17;28.97;;;19.80;50.80;;;;;;5072797;28;20468;-49
2022/04/07 09:50:02;;;;;;;31.03;29.83;;;19.70;51.00;;;;;;5073091;28;20514;-49
2022/04/07 09:52:30;;;;;;;30.03;28.93;;;19.60;51.80;;;;;;5072823;28;20483;-50
2022/04/07 09:55:01;;;;;;;28.37;27.27;;;19.50;51.30;;;;;;5072973;28;20450;-48
2022/04/07 09:57:31;;;;;;;28.83;27.73;;;19.50;51.30;;;;;;5072543;28;20479;-51
2022/04/07 10:00:01;;;;;;;29.47;28.37;;;19.50;51.30;;;;;;5072861;28;20458;-48
2022/04/07 10:02:29;;;;;;;30.00;28.80;;;19.40;51.50;;;;;;5072698;28;20447;-49
2022/04/07 10:04:57;;;;;;;29.27;28.07;;;19.40;51.60;;;;;;5072728;28;20448;-51
2022/04/07 10:07:25;;;;;;;29.40;28.20;;;19.40;51.90;;;;;;5072332;28;20478;-50
2022/04/07 10:09:52;;;;;;;29.30;28.20;;;19.30;51.80;;;;;;5072792;28;20444;-49
2022/04/07 10:12:20;;;;;;;29.70;28.60;;;19.30;52.00;;;;;;5072448;28;20518;-51
2022/04/07 10:14:49;;;;;;;30.13;29.00;;;19.30;52.10;;;;;;5072481;28;20453;-51
2022/04/07 10:17:16;;;;;;;29.03;27.93;;;19.20;52.10;;;;;;5072136;28;20467;-48
2022/04/07 10:19:50;;;;;;;29.03;27.93;;;19.20;52.30;;;;;;5072516;28;20446;-48
2022/04/07 10:22:50;;;;;;;30.00;28.87;;;19.10;52.70;;;;;;5072308;28;20450;-49
2022/04/07 10:25:18;;;;;;;29.33;28.23;;;19.10;52.80;;;;;;5072415;28;20450;-48
2022/04/07 10:27:49;;;;;;;29.10;28.00;;;19.10;52.60;;;;;;5072096;28;20472;-48
2022/04/07 10:30:18;;;;;;;29.53;28.43;;;19.30;52.60;;;;;;5072178;28;20447;-48
2022/04/07 10:32:45;;;;;;;30.33;29.13;;;19.30;52.50;;;;;;5072111;28;20480;-48
2022/04/07 10:35:29;;;;;;;29.60;28.50;;;19.50;52.00;;;;;;5072126;28;20443;-48
2022/04/07 10:37:57;;;;;;;29.83;28.73;;;19.60;51.60;;;;;;5071966;28;20471;-48
2022/04/07 10:40:54;;;;;;;29.10;28.00;;;19.80;51.40;;;;;;5072185;28;20784;-48
2022/04/07 10:43:22;;;;;;;31.43;30.23;;;20.00;51.10;;;;;;5070266;28;20980;-48
2022/04/07 10:46:06;;;;;;;30.03;28.93;;;20.00;50.50;;;;;;5071903;28;20444;-49
2022/04/07 10:48:34;;;;;;;31.13;29.93;;;20.00;50.40;;;;;;5071795;28;20934;-50
2022/04/07 10:51:01;;;;;;;30.00;28.90;;;20.00;50.20;;;;;;5071873;28;20448;-52
2022/04/07 10:53:30;;;;;;;30.17;28.97;;;19.90;50.20;;;;;;5071669;28;21002;-52
2022/04/07 10:56:00;;;;;;;28.80;27.70;;;20.00;50.80;;;;;;5071563;28;20447;-50
2022/04/07 10:58:41;;;;;;;29.60;28.50;;;20.00;50.70;;;;;;5071292;28;20443;-49
2022/04/07 11:01:14;;;;;;;29.73;28.60;;;20.00;50.50;;;;;;5071722;28;20798;-51
2022/04/07 11:03:42;;;;;;;29.33;28.23;;;20.10;50.40;;;;;;5071660;28;20439;-49
2022/04/07 11:06:11;;;;;;;29.17;28.07;;;20.00;50.40;;;;;;5071578;28;20467;-48
2022/04/07 11:08:38;;;;;;;29.80;28.70;;;20.00;50.60;;;;;;5071722;28;20957;-51
2022/04/07 11:11:05;;;;;;;30.30;29.10;;;20.10;50.40;;;;;;5071599;28;20532;-50
2022/04/07 11:13:49;;;;;;;28.77;27.67;;;20.20;50.50;;;;;;5071527;28;20479;-48
2022/04/07 11:16:25;;;;;;;28.87;27.77;;;20.30;50.00;;;;;;5069655;28;20475;-48
2022/04/07 11:19:08;;;;;;;28.90;27.80;;;20.10;49.90;;;;;;5071492;28;20439;-49
2022/04/07 11:21:46;;;;;;;29.30;28.20;;;20.00;50.10;;;;;;5071560;28;20466;-52
2022/04/07 11:24:23;;;;;;;28.80;27.70;;;20.00;50.30;;;;;;5071650;28;20805;-50
2022/04/07 11:26:52;;;;;;;28.20;27.10;;;20.00;50.20;;;;;;5071188;28;20455;-51
2022/04/07 11:29:32;;;;;;;27.47;26.47;;;20.00;50.10;;;;;;5071464;28;20999;-48
2022/04/07 11:32:08;;;;;;;27.93;26.83;;;20.00;50.00;;;;;;5071514;28;20447;-48
2022/04/07 11:34:43;;;;;;;27.93;26.93;;;20.10;49.90;;;;;;5071491;28;20435;-51
2022/04/07 11:37:10;;;;;;;27.20;26.20;;;20.20;49.80;;;;;;5050408;28;20468;-51
2022/04/07 11:39:40;;;;;;;28.43;27.33;;;20.40;49.50;;;;;;5051348;28;20807;-52
2022/04/07 11:42:08;;;;;;;29.07;27.97;;;20.60;49.20;;;;;;5051090;28;20441;-51
2022/04/07 11:44:35;;;;;;;28.27;27.17;;;20.90;48.80;;;;;;5051366;28;20878;-48
2022/04/07 11:47:02;;;;;;;30.70;29.50;;;21.80;48.30;;;;;;5038041;28;20462;-53
2022/04/07 11:49:31;;;;;;;29.63;28.53;;;23.30;46.50;;;;;;5031704;28;20438;-48
2022/04/07 11:51:59;;;;;;;28.63;27.43;;;24.50;44.60;;;;;;5031469;28;20445;-48
2022/04/07 11:54:28;;;;;;;29.40;28.30;;;24.50;43.30;;;;;;5031502;28;20489;-52
2022/04/07 11:56:55;;;;;;;27.13;26.07;;;24.70;42.50;;;;;;5042986;28;20483;-48
2022/04/07 11:59:21;;;;;;;28.37;27.27;;;23.90;42.80;;;;;;5051173;28;20445;-48
2022/04/07 12:01:50;;;;;;;30.00;28.90;;;23.20;43.80;;;;;;5051349;28;20535;-51
2022/04/07 12:04:17;;;;;;;28.60;27.50;;;22.60;45.00;;;;;;5051046;28;20523;-51
2022/04/07 12:06:48;;;;;;;28.20;27.10;;;22.50;46.20;;;;;;5050639;28;21066;-50
2022/04/07 12:09:15;;;;;;;29.03;27.90;;;22.50;46.20;;;;;;5051295;28;20455;-49
2022/04/07 12:11:42;;;;;;;31.20;30.00;;;24.50;45.10;;;;;;5054785;28;20444;-50
2022/04/07 12:14:11;;;;;;;27.90;26.80;;;25.60;42.00;;;;;;5054850;28;20488;-51
2022/04/07 12:16:44;;;;;;;29.60;28.40;;;25.50;41.50;;;;;;5054393;28;20460;-51
2022/04/07 12:19:11;;;;;;;28.10;27.00;;;27.10;39.90;;;;;;5054759;28;20502;-52
2022/04/07 12:21:56;;;;;;;29.77;28.57;;;26.90;38.50;;;;;;5054704;28;20459;-53
2022/04/07 12:24:24;;;;;;;28.00;26.80;;;25.60;39.20;;;;;;5054715;28;20444;-48
2022/04/07 12:26:52;;;;;;;27.13;26.13;;;24.90;39.80;;;;;;5054206;28;20504;-50
2022/04/07 12:29:21;;;;;;;26.80;25.70;;;25.10;41.30;;;;;;5054580;28;20448;-52
2022/04/07 12:31:59;;;;;;;26.83;25.83;;;24.60;40.40;;;;;;5054341;28;20532;-52
2022/04/07 12:34:26;;;;;;;29.20;28.10;;;23.90;41.10;;;;;;5054479;28;20479;-50
2022/04/07 12:36:55;;;;;;;30.43;29.23;;;23.70;42.40;;;;;;5054058;28;20472;-51